Terminal Aerodrome Forecast
Issued by NWS

Home | Current Version | Previous Version | Text Only | Print | Product List | Glossary On
Versions: 1 2 3 4 5 6 7 8 9 10 11 12
000
FTUS41 KPBZ 231120
TAFAGC
TAF
KAGC 231120Z 2312/2412 11006KT P6SM SCT250
     FM231600 13012G20KT P6SM BKN250
     FM240100 13009KT P6SM BKN110
     FM240700 12008KT P6SM VCSH OVC070=

USA.gov is the U.S. government's official web portal to all federal, state and local government web resources and services.